sensor_id;sensor_type;location;lat;lon;timestamp;temperature;humidity
30300;DHT22;17110;52.602;12.998;2024-03-02T00:00:23;5.50;99.90
30300;DHT22;17110;52.602;12.998;2024-03-02T00:05:23;5.60;99.90
30300;DHT22;17110;52.602;12.998;2024-03-02T00:10:27;5.60;99.90
30300;DHT22;17110;52.602;12.998;2024-03-02T00:15:40;5.70;99.90
30300;DHT22;17110;52.602;12.998;2024-03-02T00:20:41;5.70;99.90
30300;DHT22;17110;52.602;12.998;2024-03-02T00:25:46;5.80;99.90
30300;DHT22;17110;52.602;12.998;2024-03-02T00:30:55;5.90;99.90
30300;DHT22;17110;52.602;12.998;2024-03-02T00:35:56;5.90;99.90
30300;DHT22;17110;52.602;12.998;2024-03-02T00:41:00;5.90;99.90
30300;DHT22;17110;52.602;12.998;2024-03-02T00:46:04;6.00;99.90
30300;DHT22;17110;52.602;12.998;2024-03-02T00:51:05;6.00;99.90
30300;DHT22;17110;52.602;12.998;2024-03-02T00:56:09;6.00;99.90
30300;DHT22;17110;52.602;12.998;2024-03-02T01:01:10;6.10;99.90
30300;DHT22;17110;52.602;12.998;2024-03-02T01:06:11;6.10;99.90
30300;DHT22;17110;52.602;12.998;2024-03-02T01:11:13;6.10;99.90
30300;DHT22;17110;52.602;12.998;2024-03-02T01:16:14;6.10;99.90
30300;DHT22;17110;52.602;12.998;2024-03-02T01:21:15;6.20;99.90
30300;DHT22;17110;52.602;12.998;2024-03-02T01:26:17;6.20;99.90
30300;DHT22;17110;52.602;12.998;2024-03-02T01:31:18;6.30;99.90
30300;DHT22;17110;52.602;12.998;2024-03-02T01:36:18;6.30;99.90
30300;DHT22;17110;52.602;12.998;2024-03-02T01:41:20;6.30;99.90
30300;DHT22;17110;52.602;12.998;2024-03-02T01:46:21;6.30;99.90
30300;DHT22;17110;52.602;12.998;2024-03-02T01:51:22;6.30;99.90
30300;DHT22;17110;52.602;12.998;2024-03-02T01:56:24;6.40;99.90
30300;DHT22;17110;52.602;12.998;2024-03-02T02:01:25;6.40;99.90
30300;DHT22;17110;52.602;12.998;2024-03-02T02:06:25;6.40;99.90
30300;DHT22;17110;52.602;12.998;2024-03-02T02:11:29;6.50;99.90
30300;DHT22;17110;52.602;12.998;2024-03-02T02:16:29;6.50;99.90
30300;DHT22;17110;52.602;12.998;2024-03-02T02:21:31;6.50;99.90
30300;DHT22;17110;52.602;12.998;2024-03-02T02:26:32;6.60;99.90
30300;DHT22;17110;52.602;12.998;2024-03-02T02:31:37;6.60;99.90
30300;DHT22;17110;52.602;12.998;2024-03-02T02:36:39;6.60;99.90
30300;DHT22;17110;52.602;12.998;2024-03-02T02:41:40;6.60;99.90
30300;DHT22;17110;52.602;12.998;2024-03-02T02:46:41;6.60;99.90
30300;DHT22;17110;52.602;12.998;2024-03-02T02:51:43;6.60;99.90
30300;DHT22;17110;52.602;12.998;2024-03-02T02:56:43;6.60;99.90
30300;DHT22;17110;52.602;12.998;2024-03-02T03:01:44;6.60;99.90
30300;DHT22;17110;52.602;12.998;2024-03-02T03:06:46;6.60;99.90
30300;DHT22;17110;52.602;12.998;2024-03-02T03:11:47;6.60;99.90
30300;DHT22;17110;52.602;12.998;2024-03-02T03:16:48;6.60;99.90
30300;DHT22;17110;52.602;12.998;2024-03-02T03:21:50;6.70;99.90
30300;DHT22;17110;52.602;12.998;2024-03-02T03:26:50;6.70;99.90
30300;DHT22;17110;52.602;12.998;2024-03-02T03:31:51;6.80;99.90
30300;DHT22;17110;52.602;12.998;2024-03-02T03:36:53;6.80;99.90
30300;DHT22;17110;52.602;12.998;2024-03-02T03:41:54;6.90;99.90
30300;DHT22;17110;52.602;12.998;2024-03-02T03:46:55;7.00;99.90
30300;DHT22;17110;52.602;12.998;2024-03-02T03:51:57;7.00;99.90
30300;DHT22;17110;52.602;12.998;2024-03-02T03:56:57;7.00;99.90
30300;DHT22;17110;52.602;12.998;2024-03-02T04:01:58;7.10;99.90
30300;DHT22;17110;52.602;12.998;2024-03-02T04:07:00;7.10;99.90
30300;DHT22;17110;52.602;12.998;2024-03-02T04:12:01;7.10;99.90
30300;DHT22;17110;52.602;12.998;2024-03-02T04:17:02;7.10;99.90
30300;DHT22;17110;52.602;12.998;2024-03-02T04:22:04;7.10;99.90
30300;DHT22;17110;52.602;12.998;2024-03-02T04:27:05;7.10;99.90
30300;DHT22;17110;52.602;12.998;2024-03-02T04:32:06;7.10;99.90
30300;DHT22;17110;52.602;12.998;2024-03-02T04:37:10;7.10;99.90
30300;DHT22;17110;52.602;12.998;2024-03-02T04:42:11;7.10;99.90
30300;DHT22;17110;52.602;12.998;2024-03-02T04:47:12;7.20;99.90
30300;DHT22;17110;52.602;12.998;2024-03-02T04:52:14;7.20;99.90
30300;DHT22;17110;52.602;12.998;2024-03-02T04:57:15;7.20;99.90
30300;DHT22;17110;52.602;12.998;2024-03-02T05:02:15;7.20;99.90
30300;DHT22;17110;52.602;12.998;2024-03-02T05:07:17;7.30;99.90
30300;DHT22;17110;52.602;12.998;2024-03-02T05:12:18;7.30;99.90
30300;DHT22;17110;52.602;12.998;2024-03-02T05:17:19;7.30;99.90
30300;DHT22;17110;52.602;12.998;2024-03-02T05:22:21;7.30;99.90
30300;DHT22;17110;52.602;12.998;2024-03-02T05:27:22;7.30;99.90
30300;DHT22;17110;52.602;12.998;2024-03-02T05:32:22;7.30;99.90
30300;DHT22;17110;52.602;12.998;2024-03-02T05:37:24;7.30;99.90
30300;DHT22;17110;52.602;12.998;2024-03-02T05:42:26;7.40;99.90
30300;DHT22;17110;52.602;12.998;2024-03-02T05:47:27;7.40;99.90
30300;DHT22;17110;52.602;12.998;2024-03-02T05:52:29;7.40;99.90
30300;DHT22;17110;52.602;12.998;2024-03-02T05:57:29;7.40;99.90
30300;DHT22;17110;52.602;12.998;2024-03-02T06:02:30;7.50;99.90
30300;DHT22;17110;52.602;12.998;2024-03-02T06:07:32;7.40;99.90
30300;DHT22;17110;52.602;12.998;2024-03-02T06:12:33;7.50;99.90
30300;DHT22;17110;52.602;12.998;2024-03-02T06:17:35;7.50;99.90
30300;DHT22;17110;52.602;12.998;2024-03-02T06:22:38;7.50;99.90
30300;DHT22;17110;52.602;12.998;2024-03-02T06:27:38;7.50;99.90
30300;DHT22;17110;52.602;12.998;2024-03-02T06:32:39;7.50;99.90
30300;DHT22;17110;52.602;12.998;2024-03-02T06:37:41;7.60;99.90
30300;DHT22;17110;52.602;12.998;2024-03-02T06:42:42;7.60;99.90
30300;DHT22;17110;52.602;12.998;2024-03-02T06:47:42;7.70;99.90
30300;DHT22;17110;52.602;12.998;2024-03-02T06:52:44;7.70;99.90
30300;DHT22;17110;52.602;12.998;2024-03-02T06:57:45;7.80;99.90
30300;DHT22;17110;52.602;12.998;2024-03-02T07:02:46;7.90;99.90
30300;DHT22;17110;52.602;12.998;2024-03-02T07:07:48;8.10;99.90
30300;DHT22;17110;52.602;12.998;2024-03-02T07:12:49;8.30;99.90
30300;DHT22;17110;52.602;12.998;2024-03-02T07:17:50;8.50;99.90
30300;DHT22;17110;52.602;12.998;2024-03-02T07:22:52;8.70;99.90
30300;DHT22;17110;52.602;12.998;2024-03-02T07:27:52;8.70;99.90
30300;DHT22;17110;52.602;12.998;2024-03-02T07:32:53;8.70;99.90
30300;DHT22;17110;52.602;12.998;2024-03-02T07:37:56;8.60;99.90
30300;DHT22;17110;52.602;12.998;2024-03-02T07:42:56;8.60;99.90
30300;DHT22;17110;52.602;12.998;2024-03-02T07:47:57;8.70;99.90
30300;DHT22;17110;52.602;12.998;2024-03-02T07:52:59;8.70;99.90
30300;DHT22;17110;52.602;12.998;2024-03-02T07:58:00;8.70;99.90
30300;DHT22;17110;52.602;12.998;2024-03-02T08:03:01;8.80;99.90
30300;DHT22;17110;52.602;12.998;2024-03-02T08:08:04;8.80;99.90
30300;DHT22;17110;52.602;12.998;2024-03-02T08:13:05;8.70;99.90
30300;DHT22;17110;52.602;12.998;2024-03-02T08:18:05;8.70;99.90
30300;DHT22;17110;52.602;12.998;2024-03-02T08:23:08;8.70;99.90
30300;DHT22;17110;52.602;12.998;2024-03-02T08:28:08;8.70;99.90
30300;DHT22;17110;52.602;12.998;2024-03-02T08:33:09;8.80;99.90
30300;DHT22;17110;52.602;12.998;2024-03-02T08:38:11;8.60;99.90
30300;DHT22;17110;52.602;12.998;2024-03-02T08:43:12;8.60;99.90
30300;DHT22;17110;52.602;12.998;2024-03-02T08:48:13;8.70;99.90
30300;DHT22;17110;52.602;12.998;2024-03-02T08:53:15;8.70;99.90
30300;DHT22;17110;52.602;12.998;2024-03-02T08:58:16;8.80;99.90
30300;DHT22;17110;52.602;12.998;2024-03-02T09:03:17;8.80;99.90
30300;DHT22;17110;52.602;12.998;2024-03-02T09:08:19;8.80;99.90
30300;DHT22;17110;52.602;12.998;2024-03-02T09:13:20;9.00;99.90
30300;DHT22;17110;52.602;12.998;2024-03-02T09:18:20;9.00;99.90
30300;DHT22;17110;52.602;12.998;2024-03-02T09:23:23;9.00;99.90
30300;DHT22;17110;52.602;12.998;2024-03-02T09:28:23;9.00;99.90
30300;DHT22;17110;52.602;12.998;2024-03-02T09:33:24;8.90;99.90
30300;DHT22;17110;52.602;12.998;2024-03-02T09:38:26;9.10;99.90
30300;DHT22;17110;52.602;12.998;2024-03-02T09:43:27;9.10;99.90
30300;DHT22;17110;52.602;12.998;2024-03-02T09:48:28;9.00;99.90
30300;DHT22;17110;52.602;12.998;2024-03-02T09:53:32;9.00;99.90
30300;DHT22;17110;52.602;12.998;2024-03-02T09:58:32;9.10;99.90
30300;DHT22;17110;52.602;12.998;2024-03-02T10:03:34;9.20;99.90
30300;DHT22;17110;52.602;12.998;2024-03-02T10:08:43;9.30;99.90
30300;DHT22;17110;52.602;12.998;2024-03-02T10:13:44;9.40;99.90
30300;DHT22;17110;52.602;12.998;2024-03-02T10:18:45;9.50;99.90
30300;DHT22;17110;52.602;12.998;2024-03-02T10:23:47;9.80;99.90
30300;DHT22;17110;52.602;12.998;2024-03-02T10:28:47;10.00;99.90
30300;DHT22;17110;52.602;12.998;2024-03-02T10:33:48;10.30;99.90
30300;DHT22;17110;52.602;12.998;2024-03-02T10:38:50;10.50;99.90
30300;DHT22;17110;52.602;12.998;2024-03-02T10:43:52;10.60;99.90
30300;DHT22;17110;52.602;12.998;2024-03-02T10:48:53;10.80;99.90
30300;DHT22;17110;52.602;12.998;2024-03-02T10:53:55;10.80;99.90
30300;DHT22;17110;52.602;12.998;2024-03-02T10:59:03;11.00;99.90
30300;DHT22;17110;52.602;12.998;2024-03-02T11:04:07;10.90;99.90
30300;DHT22;17110;52.602;12.998;2024-03-02T11:09:10;11.00;99.90
30300;DHT22;17110;52.602;12.998;2024-03-02T11:14:15;11.20;99.90
30300;DHT22;17110;52.602;12.998;2024-03-02T11:19:17;11.60;99.90
30300;DHT22;17110;52.602;12.998;2024-03-02T11:24:35;11.90;99.90
30300;DHT22;17110;52.602;12.998;2024-03-02T11:29:53;12.10;99.90
30300;DHT22;17110;52.602;12.998;2024-03-02T11:34:54;12.00;99.90
30300;DHT22;17110;52.602;12.998;2024-03-02T11:39:56;12.10;99.90
30300;DHT22;17110;52.602;12.998;2024-03-02T11:44:57;12.30;99.90
30300;DHT22;17110;52.602;12.998;2024-03-02T11:49:59;12.50;99.90
30300;DHT22;17110;52.602;12.998;2024-03-02T11:55:02;12.50;99.90
30300;DHT22;17110;52.602;12.998;2024-03-02T12:00:05;12.90;99.90
30300;DHT22;17110;52.602;12.998;2024-03-02T12:05:08;13.40;99.90
30300;DHT22;17110;52.602;12.998;2024-03-02T12:10:11;13.90;99.90
30300;DHT22;17110;52.602;12.998;2024-03-02T12:15:11;14.20;99.90
30300;DHT22;17110;52.602;12.998;2024-03-02T12:20:12;13.90;99.90
30300;DHT22;17110;52.602;12.998;2024-03-02T12:25:15;13.80;99.90
30300;DHT22;17110;52.602;12.998;2024-03-02T12:30:17;13.80;99.90
30300;DHT22;17110;52.602;12.998;2024-03-02T12:35:18;13.70;99.90
30300;DHT22;17110;52.602;12.998;2024-03-02T12:40:21;13.90;99.90
30300;DHT22;17110;52.602;12.998;2024-03-02T12:45:22;13.90;99.90
30300;DHT22;17110;52.602;12.998;2024-03-02T12:50:23;13.70;99.90
30300;DHT22;17110;52.602;12.998;2024-03-02T12:55:25;13.60;99.90
30300;DHT22;17110;52.602;12.998;2024-03-02T13:00:26;13.30;99.90
30300;DHT22;17110;52.602;12.998;2024-03-02T13:05:30;13.20;99.90
30300;DHT22;17110;52.602;12.998;2024-03-02T13:10:32;13.20;99.90
30300;DHT22;17110;52.602;12.998;2024-03-02T13:15:33;13.10;99.90
30300;DHT22;17110;52.602;12.998;2024-03-02T13:20:34;13.00;99.90
30300;DHT22;17110;52.602;12.998;2024-03-02T13:25:36;13.00;99.90
30300;DHT22;17110;52.602;12.998;2024-03-02T13:30:36;13.00;99.90
30300;DHT22;17110;52.602;12.998;2024-03-02T13:35:37;13.30;99.90
30300;DHT22;17110;52.602;12.998;2024-03-02T13:40:39;13.40;99.90
30300;DHT22;17110;52.602;12.998;2024-03-02T13:45:40;13.50;99.90
30300;DHT22;17110;52.602;12.998;2024-03-02T13:50:41;13.50;99.90
30300;DHT22;17110;52.602;12.998;2024-03-02T13:55:43;13.40;99.90
30300;DHT22;17110;52.602;12.998;2024-03-02T14:00:44;13.60;99.90
30300;DHT22;17110;52.602;12.998;2024-03-02T14:05:45;13.60;99.90
30300;DHT22;17110;52.602;12.998;2024-03-02T14:10:47;14.00;99.90
30300;DHT22;17110;52.602;12.998;2024-03-02T14:15:48;14.10;99.90
30300;DHT22;17110;52.602;12.998;2024-03-02T14:20:49;14.10;99.90
30300;DHT22;17110;52.602;12.998;2024-03-02T14:25:51;14.10;99.90
30300;DHT22;17110;52.602;12.998;2024-03-02T14:30:52;14.20;99.90
30300;DHT22;17110;52.602;12.998;2024-03-02T14:35:52;14.30;99.90
30300;DHT22;17110;52.602;12.998;2024-03-02T14:40:55;13.90;99.90
30300;DHT22;17110;52.602;12.998;2024-03-02T14:45:55;13.80;99.90
30300;DHT22;17110;52.602;12.998;2024-03-02T14:50:57;13.60;99.90
30300;DHT22;17110;52.602;12.998;2024-03-02T14:55:59;13.60;99.90
30300;DHT22;17110;52.602;12.998;2024-03-02T15:01:00;13.50;99.90
30300;DHT22;17110;52.602;12.998;2024-03-02T15:06:01;13.40;99.90
30300;DHT22;17110;52.602;12.998;2024-03-02T15:11:03;13.30;99.90
30300;DHT22;17110;52.602;12.998;2024-03-02T15:16:04;13.30;99.90
30300;DHT22;17110;52.602;12.998;2024-03-02T15:21:05;13.30;99.90
30300;DHT22;17110;52.602;12.998;2024-03-02T15:26:07;13.20;99.90
30300;DHT22;17110;52.602;12.998;2024-03-02T15:31:07;13.20;99.90
30300;DHT22;17110;52.602;12.998;2024-03-02T15:36:08;13.20;99.90
30300;DHT22;17110;52.602;12.998;2024-03-02T15:41:10;13.20;99.90
30300;DHT22;17110;52.602;12.998;2024-03-02T15:46:11;13.10;99.90
30300;DHT22;17110;52.602;12.998;2024-03-02T15:51:12;13.20;99.90
30300;DHT22;17110;52.602;12.998;2024-03-02T15:56:14;13.00;99.90
30300;DHT22;17110;52.602;12.998;2024-03-02T16:01:15;12.90;99.90
30300;DHT22;17110;52.602;12.998;2024-03-02T16:06:15;12.80;99.90
30300;DHT22;17110;52.602;12.998;2024-03-02T16:11:17;12.70;99.90
30300;DHT22;17110;52.602;12.998;2024-03-02T16:16:18;12.60;99.90
30300;DHT22;17110;52.602;12.998;2024-03-02T16:21:19;12.50;99.90
30300;DHT22;17110;52.602;12.998;2024-03-02T16:26:21;12.40;99.90
30300;DHT22;17110;52.602;12.998;2024-03-02T16:31:22;12.30;99.90
30300;DHT22;17110;52.602;12.998;2024-03-02T16:36:22;12.20;99.90
30300;DHT22;17110;52.602;12.998;2024-03-02T16:41:24;12.10;99.90
30300;DHT22;17110;52.602;12.998;2024-03-02T16:46:25;11.90;99.90
30300;DHT22;17110;52.602;12.998;2024-03-02T16:51:26;11.80;99.90
30300;DHT22;17110;52.602;12.998;2024-03-02T16:56:28;11.60;99.90
30300;DHT22;17110;52.602;12.998;2024-03-02T17:01:29;11.30;99.90
30300;DHT22;17110;52.602;12.998;2024-03-02T17:06:30;11.00;99.90
30300;DHT22;17110;52.602;12.998;2024-03-02T17:11:32;10.80;99.90
30300;DHT22;17110;52.602;12.998;2024-03-02T17:16:32;10.90;99.90
30300;DHT22;17110;52.602;12.998;2024-03-02T17:21:33;10.90;99.90
30300;DHT22;17110;52.602;12.998;2024-03-02T17:26:35;10.90;99.90
30300;DHT22;17110;52.602;12.998;2024-03-02T17:31:36;10.90;99.90
30300;DHT22;17110;52.602;12.998;2024-03-02T17:36:37;10.90;99.90
30300;DHT22;17110;52.602;12.998;2024-03-02T17:41:39;10.80;99.90
30300;DHT22;17110;52.602;12.998;2024-03-02T17:46:39;10.70;99.90
30300;DHT22;17110;52.602;12.998;2024-03-02T17:51:40;10.70;99.90
30300;DHT22;17110;52.602;12.998;2024-03-02T17:56:42;10.60;99.90
30300;DHT22;17110;52.602;12.998;2024-03-02T18:01:43;10.60;99.90
30300;DHT22;17110;52.602;12.998;2024-03-02T18:06:44;10.50;99.90
30300;DHT22;17110;52.602;12.998;2024-03-02T18:11:46;10.30;99.90
30300;DHT22;17110;52.602;12.998;2024-03-02T18:16:46;10.00;99.90
30300;DHT22;17110;52.602;12.998;2024-03-02T18:21:47;9.90;99.90
30300;DHT22;17110;52.602;12.998;2024-03-02T18:26:49;9.80;99.90
30300;DHT22;17110;52.602;12.998;2024-03-02T18:31:50;9.70;99.90
30300;DHT22;17110;52.602;12.998;2024-03-02T18:36:51;9.50;99.90
30300;DHT22;17110;52.602;12.998;2024-03-02T18:41:53;9.50;99.90
30300;DHT22;17110;52.602;12.998;2024-03-02T18:46:53;9.50;99.90
30300;DHT22;17110;52.602;12.998;2024-03-02T18:51:54;9.50;99.90
30300;DHT22;17110;52.602;12.998;2024-03-02T18:56:56;9.40;99.90
30300;DHT22;17110;52.602;12.998;2024-03-02T19:01:57;9.20;99.90
30300;DHT22;17110;52.602;12.998;2024-03-02T19:06:58;9.00;99.90
30300;DHT22;17110;52.602;12.998;2024-03-02T19:12:00;8.90;99.90
30300;DHT22;17110;52.602;12.998;2024-03-02T19:17:01;8.80;99.90
30300;DHT22;17110;52.602;12.998;2024-03-02T19:22:01;8.60;99.90
30300;DHT22;17110;52.602;12.998;2024-03-02T19:27:04;8.50;99.90
30300;DHT22;17110;52.602;12.998;2024-03-02T19:32:05;8.50;99.90
30300;DHT22;17110;52.602;12.998;2024-03-02T19:37:06;8.60;99.90
30300;DHT22;17110;52.602;12.998;2024-03-02T19:42:08;8.70;99.90
30300;DHT22;17110;52.602;12.998;2024-03-02T19:47:09;8.70;99.90
30300;DHT22;17110;52.602;12.998;2024-03-02T19:52:09;8.70;99.90
30300;DHT22;17110;52.602;12.998;2024-03-02T19:57:11;8.50;99.90
30300;DHT22;17110;52.602;12.998;2024-03-02T20:02:12;8.30;99.90
30300;DHT22;17110;52.602;12.998;2024-03-02T20:07:13;8.10;99.90
30300;DHT22;17110;52.602;12.998;2024-03-02T20:12:15;7.90;99.90
30300;DHT22;17110;52.602;12.998;2024-03-02T20:17:16;7.80;99.90
30300;DHT22;17110;52.602;12.998;2024-03-02T20:22:16;7.70;99.90
30300;DHT22;17110;52.602;12.998;2024-03-02T20:27:19;7.60;99.90
30300;DHT22;17110;52.602;12.998;2024-03-02T20:32:19;7.50;99.90
30300;DHT22;17110;52.602;12.998;2024-03-02T20:37:20;7.40;99.90
30300;DHT22;17110;52.602;12.998;2024-03-02T20:42:23;7.30;99.90
30300;DHT22;17110;52.602;12.998;2024-03-02T20:47:23;7.30;99.90
30300;DHT22;17110;52.602;12.998;2024-03-02T20:52:24;7.20;99.90
30300;DHT22;17110;52.602;12.998;2024-03-02T20:57:26;7.10;99.90
30300;DHT22;17110;52.602;12.998;2024-03-02T21:02:27;7.10;99.90
30300;DHT22;17110;52.602;12.998;2024-03-02T21:07:28;7.00;99.90
30300;DHT22;17110;52.602;12.998;2024-03-02T21:12:30;6.90;99.90
30300;DHT22;17110;52.602;12.998;2024-03-02T21:17:30;7.00;99.90
30300;DHT22;17110;52.602;12.998;2024-03-02T21:22:31;6.90;99.90
30300;DHT22;17110;52.602;12.998;2024-03-02T21:27:33;6.80;99.90
30300;DHT22;17110;52.602;12.998;2024-03-02T21:32:34;7.00;99.90
30300;DHT22;17110;52.602;12.998;2024-03-02T21:37:35;6.90;99.90
30300;DHT22;17110;52.602;12.998;2024-03-02T21:42:37;7.00;99.90
30300;DHT22;17110;52.602;12.998;2024-03-02T21:47:38;7.10;99.90
30300;DHT22;17110;52.602;12.998;2024-03-02T21:52:38;7.10;99.90
30300;DHT22;17110;52.602;12.998;2024-03-02T21:57:40;7.10;99.90
30300;DHT22;17110;52.602;12.998;2024-03-02T22:02:41;7.20;99.90
30300;DHT22;17110;52.602;12.998;2024-03-02T22:07:42;7.30;99.90
30300;DHT22;17110;52.602;12.998;2024-03-02T22:12:44;7.20;99.90
30300;DHT22;17110;52.602;12.998;2024-03-02T22:17:45;7.30;99.90
30300;DHT22;17110;52.602;12.998;2024-03-02T22:22:45;7.30;99.90
30300;DHT22;17110;52.602;12.998;2024-03-02T22:27:47;7.30;99.90
30300;DHT22;17110;52.602;12.998;2024-03-02T22:32:48;7.40;99.90
30300;DHT22;17110;52.602;12.998;2024-03-02T22:37:49;7.40;99.90
30300;DHT22;17110;52.602;12.998;2024-03-02T22:42:51;7.40;99.90
30300;DHT22;17110;52.602;12.998;2024-03-02T22:47:52;7.30;99.90
30300;DHT22;17110;52.602;12.998;2024-03-02T22:52:52;7.20;99.90
30300;DHT22;17110;52.602;12.998;2024-03-02T22:57:55;7.10;99.90
30300;DHT22;17110;52.602;12.998;2024-03-02T23:02:55;7.00;99.90
30300;DHT22;17110;52.602;12.998;2024-03-02T23:07:56;6.80;99.90
30300;DHT22;17110;52.602;12.998;2024-03-02T23:12:58;6.80;99.90
30300;DHT22;17110;52.602;12.998;2024-03-02T23:17:59;6.90;99.90
30300;DHT22;17110;52.602;12.998;2024-03-02T23:22:59;7.00;99.90
30300;DHT22;17110;52.602;12.998;2024-03-02T23:28:02;7.20;99.90
30300;DHT22;17110;52.602;12.998;2024-03-02T23:33:03;7.10;99.90
30300;DHT22;17110;52.602;12.998;2024-03-02T23:38:04;7.10;99.90
30300;DHT22;17110;52.602;12.998;2024-03-02T23:43:06;6.90;99.90
30300;DHT22;17110;52.602;12.998;2024-03-02T23:48:08;6.80;99.90
30300;DHT22;17110;52.602;12.998;2024-03-02T23:53:09;6.90;99.90
30300;DHT22;17110;52.602;12.998;2024-03-02T23:58:11;7.00;99.90
